Terminal Aerodrome Forecast
Issued by NWS Charleston, SC

Home | Current Version | Previous Version | Text Only | Print | Product List | Glossary On
Versions: 1 2 3 4 5 6 7 8 9 10 11 12 13
000
FTUS42 KCHS 231700
TAFSAV
TAF
KSAV 231738Z 2318/2418 03012G18KT P6SM SCT018 OVC035
     FM240200 01014G20KT P6SM SCT015 OVC035
     FM241300 03013KT P6SM SCT015 BKN025=

USA.gov is the U.S. government's official web portal to all federal, state and local government web resources and services.